sensor_id;sensor_type;location;lat;lon;timestamp;pressure;altitude;pressure_sealevel;temperature;humidity
52441;BME280;39611;46.062;8.950;2023-05-25T00:00:57;96651.44;;;14.02;100.00
52441;BME280;39611;46.062;8.950;2023-05-25T00:03:29;96648.78;;;14.02;100.00
52441;BME280;39611;46.062;8.950;2023-05-25T00:05:57;96645.63;;;14.00;100.00
52441;BME280;39611;46.062;8.950;2023-05-25T00:08:24;96638.75;;;13.99;100.00
52441;BME280;39611;46.062;8.950;2023-05-25T00:14:13;96641.41;;;13.99;100.00
52441;BME280;39611;46.062;8.950;2023-05-25T00:16:40;96625.44;;;13.99;100.00
52441;BME280;39611;46.062;8.950;2023-05-25T00:19:06;96628.88;;;13.99;100.00
52441;BME280;39611;46.062;8.950;2023-05-25T00:21:35;96628.19;;;13.94;100.00
52441;BME280;39611;46.062;8.950;2023-05-25T00:24:05;96622.28;;;13.97;100.00
52441;BME280;39611;46.062;8.950;2023-05-25T00:26:34;96621.84;;;13.90;100.00
52441;BME280;39611;46.062;8.950;2023-05-25T00:29:00;96622.63;;;13.90;100.00
52441;BME280;39611;46.062;8.950;2023-05-25T00:31:27;96630.84;;;13.94;100.00
52441;BME280;39611;46.062;8.950;2023-05-25T00:33:54;96629.16;;;13.98;100.00
52441;BME280;39611;46.062;8.950;2023-05-25T00:36:20;96629.97;;;13.98;100.00
52441;BME280;39611;46.062;8.950;2023-05-25T00:38:47;96627.66;;;13.92;100.00
52441;BME280;39611;46.062;8.950;2023-05-25T00:41:15;96614.97;;;13.89;100.00
52441;BME280;39611;46.062;8.950;2023-05-25T00:43:45;96600.22;;;13.96;100.00
52441;BME280;39611;46.062;8.950;2023-05-25T00:46:13;96603.56;;;14.02;100.00
52441;BME280;39611;46.062;8.950;2023-05-25T00:48:41;96595.09;;;14.00;100.00
52441;BME280;39611;46.062;8.950;2023-05-25T00:51:09;96610.06;;;13.96;100.00
52441;BME280;39611;46.062;8.950;2023-05-25T00:53:36;96609.34;;;13.90;100.00
52441;BME280;39611;46.062;8.950;2023-05-25T00:56:14;96614.19;;;13.88;100.00
52441;BME280;39611;46.062;8.950;2023-05-25T00:58:45;96591.47;;;13.96;100.00
52441;BME280;39611;46.062;8.950;2023-05-25T01:01:14;96596.38;;;14.03;100.00
52441;BME280;39611;46.062;8.950;2023-05-25T01:03:45;96581.72;;;14.05;100.00
52441;BME280;39611;46.062;8.950;2023-05-25T01:06:20;96571.66;;;14.02;100.00
52441;BME280;39611;46.062;8.950;2023-05-25T01:08:56;96576.13;;;14.07;100.00
52441;BME280;39611;46.062;8.950;2023-05-25T01:11:31;96578.25;;;13.91;100.00
52441;BME280;39611;46.062;8.950;2023-05-25T01:13:58;96568.09;;;13.93;100.00
52441;BME280;39611;46.062;8.950;2023-05-25T01:16:24;96569.28;;;14.01;100.00
52441;BME280;39611;46.062;8.950;2023-05-25T01:18:54;96580.84;;;14.10;100.00
52441;BME280;39611;46.062;8.950;2023-05-25T01:24:29;96572.06;;;14.09;100.00
52441;BME280;39611;46.062;8.950;2023-05-25T01:27:30;96567.53;;;14.10;100.00
52441;BME280;39611;46.062;8.950;2023-05-25T01:29:59;96573.38;;;14.12;100.00
52441;BME280;39611;46.062;8.950;2023-05-25T01:32:26;96578.00;;;14.06;100.00
52441;BME280;39611;46.062;8.950;2023-05-25T01:34:54;96566.25;;;14.07;100.00
52441;BME280;39611;46.062;8.950;2023-05-25T01:37:22;96568.91;;;14.07;100.00
52441;BME280;39611;46.062;8.950;2023-05-25T01:39:51;96558.19;;;14.12;100.00
52441;BME280;39611;46.062;8.950;2023-05-25T01:42:18;96565.47;;;14.07;100.00
52441;BME280;39611;46.062;8.950;2023-05-25T01:44:44;96556.72;;;14.20;100.00
52441;BME280;39611;46.062;8.950;2023-05-25T01:47:15;96569.00;;;14.02;100.00
52441;BME280;39611;46.062;8.950;2023-05-25T01:50:06;96576.97;;;14.02;100.00
52441;BME280;39611;46.062;8.950;2023-05-25T01:52:37;96563.00;;;14.10;100.00
52441;BME280;39611;46.062;8.950;2023-05-25T01:55:14;96566.66;;;14.14;100.00
52441;BME280;39611;46.062;8.950;2023-05-25T01:57:45;96571.50;;;14.12;100.00
52441;BME280;39611;46.062;8.950;2023-05-25T02:00:15;96569.34;;;14.14;100.00
52441;BME280;39611;46.062;8.950;2023-05-25T02:02:44;96570.13;;;14.15;100.00
52441;BME280;39611;46.062;8.950;2023-05-25T02:05:12;96573.66;;;14.10;100.00
52441;BME280;39611;46.062;8.950;2023-05-25T02:07:38;96558.94;;;13.99;100.00
52441;BME280;39611;46.062;8.950;2023-05-25T02:10:05;96561.44;;;14.09;100.00
52441;BME280;39611;46.062;8.950;2023-05-25T02:12:32;96563.41;;;14.17;100.00
52441;BME280;39611;46.062;8.950;2023-05-25T02:14:58;96570.41;;;14.13;100.00
52441;BME280;39611;46.062;8.950;2023-05-25T02:17:25;96566.66;;;14.14;100.00
52441;BME280;39611;46.062;8.950;2023-05-25T02:19:53;96569.09;;;14.11;100.00
52441;BME280;39611;46.062;8.950;2023-05-25T02:22:20;96566.16;;;14.12;100.00
52441;BME280;39611;46.062;8.950;2023-05-25T02:24:47;96566.06;;;14.17;100.00
52441;BME280;39611;46.062;8.950;2023-05-25T02:27:13;96570.22;;;14.24;100.00
52441;BME280;39611;46.062;8.950;2023-05-25T02:29:40;96578.78;;;14.20;100.00
52441;BME280;39611;46.062;8.950;2023-05-25T02:32:07;96589.81;;;14.14;100.00
52441;BME280;39611;46.062;8.950;2023-05-25T02:34:33;96575.72;;;14.13;100.00
52441;BME280;39611;46.062;8.950;2023-05-25T02:37:00;96568.25;;;14.15;100.00
52441;BME280;39611;46.062;8.950;2023-05-25T02:39:26;96562.63;;;14.17;100.00
52441;BME280;39611;46.062;8.950;2023-05-25T02:41:53;96565.56;;;14.15;100.00
52441;BME280;39611;46.062;8.950;2023-05-25T02:44:20;96575.81;;;14.08;100.00
52441;BME280;39611;46.062;8.950;2023-05-25T02:46:47;96572.75;;;14.01;100.00
52441;BME280;39611;46.062;8.950;2023-05-25T02:49:13;96566.94;;;14.13;100.00
52441;BME280;39611;46.062;8.950;2023-05-25T02:51:39;96573.88;;;14.14;100.00
52441;BME280;39611;46.062;8.950;2023-05-25T02:54:06;96580.25;;;14.13;100.00
52441;BME280;39611;46.062;8.950;2023-05-25T02:56:32;96569.84;;;14.16;100.00
52441;BME280;39611;46.062;8.950;2023-05-25T02:58:59;96571.50;;;14.12;100.00
52441;BME280;39611;46.062;8.950;2023-05-25T03:01:25;96589.00;;;13.99;100.00
52441;BME280;39611;46.062;8.950;2023-05-25T03:03:56;96592.31;;;13.91;100.00
52441;BME280;39611;46.062;8.950;2023-05-25T03:06:22;96603.16;;;13.95;100.00
52441;BME280;39611;46.062;8.950;2023-05-25T03:08:51;96603.66;;;13.97;100.00
52441;BME280;39611;46.062;8.950;2023-05-25T03:11:18;96606.81;;;13.99;100.00
52441;BME280;39611;46.062;8.950;2023-05-25T03:13:44;96611.34;;;13.98;100.00
52441;BME280;39611;46.062;8.950;2023-05-25T03:16:10;96607.41;;;13.96;100.00
52441;BME280;39611;46.062;8.950;2023-05-25T03:18:38;96600.81;;;13.93;100.00
52441;BME280;39611;46.062;8.950;2023-05-25T03:21:04;96589.00;;;13.99;100.00
52441;BME280;39611;46.062;8.950;2023-05-25T03:23:31;96602.25;;;13.86;100.00
52441;BME280;39611;46.062;8.950;2023-05-25T03:25:58;96618.78;;;13.83;100.00
52441;BME280;39611;46.062;8.950;2023-05-25T03:28:24;96624.00;;;13.88;100.00
52441;BME280;39611;46.062;8.950;2023-05-25T03:30:51;96629.19;;;13.79;100.00
52441;BME280;39611;46.062;8.950;2023-05-25T03:33:17;96618.56;;;13.79;100.00
52441;BME280;39611;46.062;8.950;2023-05-25T03:35:44;96621.34;;;13.88;100.00
52441;BME280;39611;46.062;8.950;2023-05-25T03:38:11;96628.97;;;13.94;100.00
52441;BME280;39611;46.062;8.950;2023-05-25T03:40:38;96627.84;;;13.82;100.00
52441;BME280;39611;46.062;8.950;2023-05-25T03:43:04;96637.09;;;13.84;100.00
52441;BME280;39611;46.062;8.950;2023-05-25T03:45:30;96652.34;;;13.79;100.00
52441;BME280;39611;46.062;8.950;2023-05-25T03:47:57;96634.16;;;13.86;100.00
52441;BME280;39611;46.062;8.950;2023-05-25T03:50:23;96621.84;;;13.90;100.00
52441;BME280;39611;46.062;8.950;2023-05-25T03:52:50;96629.25;;;13.93;100.00
52441;BME280;39611;46.062;8.950;2023-05-25T03:55:17;96643.91;;;13.90;100.00
52441;BME280;39611;46.062;8.950;2023-05-25T03:57:43;96665.13;;;13.76;100.00
52441;BME280;39611;46.062;8.950;2023-05-25T04:00:10;96687.03;;;13.87;100.00
52441;BME280;39611;46.062;8.950;2023-05-25T04:02:37;96696.88;;;13.87;100.00
52441;BME280;39611;46.062;8.950;2023-05-25T04:05:04;96686.25;;;13.87;100.00
52441;BME280;39611;46.062;8.950;2023-05-25T04:07:30;96666.84;;;13.86;100.00
52441;BME280;39611;46.062;8.950;2023-05-25T04:09:57;96687.28;;;13.91;100.00
52441;BME280;39611;46.062;8.950;2023-05-25T04:12:26;96690.19;;;13.89;100.00
52441;BME280;39611;46.062;8.950;2023-05-25T04:14:52;96671.97;;;13.83;100.00
52441;BME280;39611;46.062;8.950;2023-05-25T04:17:19;96676.28;;;13.79;100.00
52441;BME280;39611;46.062;8.950;2023-05-25T04:19:50;96686.69;;;13.75;100.00
52441;BME280;39611;46.062;8.950;2023-05-25T04:22:17;96687.69;;;13.79;100.00
52441;BME280;39611;46.062;8.950;2023-05-25T04:24:44;96699.63;;;13.82;100.00
52441;BME280;39611;46.062;8.950;2023-05-25T04:27:11;96698.25;;;13.84;100.00
52441;BME280;39611;46.062;8.950;2023-05-25T04:29:40;96705.13;;;13.85;100.00
52441;BME280;39611;46.062;8.950;2023-05-25T04:32:06;96718.31;;;13.76;100.00
52441;BME280;39611;46.062;8.950;2023-05-25T04:34:34;96705.06;;;13.71;100.00
52441;BME280;39611;46.062;8.950;2023-05-25T04:37:01;96692.44;;;13.63;100.00
52441;BME280;39611;46.062;8.950;2023-05-25T04:39:33;96696.53;;;13.55;100.00
52441;BME280;39611;46.062;8.950;2023-05-25T04:42:00;96702.03;;;13.59;100.00
52441;BME280;39611;46.062;8.950;2023-05-25T04:44:31;96704.94;;;13.63;100.00
52441;BME280;39611;46.062;8.950;2023-05-25T04:46:58;96693.78;;;13.61;100.00
52441;BME280;39611;46.062;8.950;2023-05-25T04:49:24;96690.28;;;13.65;100.00
52441;BME280;39611;46.062;8.950;2023-05-25T04:51:54;96708.38;;;13.63;100.00
52441;BME280;39611;46.062;8.950;2023-05-25T04:54:21;96715.78;;;13.66;100.00
52441;BME280;39611;46.062;8.950;2023-05-25T04:56:47;96726.34;;;13.71;100.00
52441;BME280;39611;46.062;8.950;2023-05-25T04:59:14;96745.09;;;13.61;100.00
52441;BME280;39611;46.062;8.950;2023-05-25T05:01:41;96747.16;;;13.64;100.00
52441;BME280;39611;46.062;8.950;2023-05-25T05:04:09;96751.69;;;13.64;100.00
52441;BME280;39611;46.062;8.950;2023-05-25T05:06:38;96755.31;;;13.73;100.00
52441;BME280;39611;46.062;8.950;2023-05-25T05:09:04;96742.53;;;13.75;100.00
52441;BME280;39611;46.062;8.950;2023-05-25T05:11:31;96748.63;;;13.75;100.00
52441;BME280;39611;46.062;8.950;2023-05-25T05:13:57;96746.56;;;13.72;100.00
52441;BME280;39611;46.062;8.950;2023-05-25T05:16:24;96758.47;;;13.75;100.00
52441;BME280;39611;46.062;8.950;2023-05-25T05:18:51;96769.91;;;13.75;100.00
52441;BME280;39611;46.062;8.950;2023-05-25T05:21:17;96769.91;;;13.75;100.00
52441;BME280;39611;46.062;8.950;2023-05-25T05:23:46;96779.38;;;13.82;100.00
52441;BME280;39611;46.062;8.950;2023-05-25T05:26:12;96786.13;;;13.93;100.00
52441;BME280;39611;46.062;8.950;2023-05-25T05:28:40;96785.59;;;13.96;100.00
52441;BME280;39611;46.062;8.950;2023-05-25T05:31:06;96773.00;;;14.02;100.00
52441;BME280;39611;46.062;8.950;2023-05-25T05:33:33;96777.16;;;14.08;100.00
52441;BME280;39611;46.062;8.950;2023-05-25T05:36:00;96770.03;;;14.03;100.00
52441;BME280;39611;46.062;8.950;2023-05-25T05:38:27;96770.50;;;14.10;100.00
52441;BME280;39611;46.062;8.950;2023-05-25T05:40:54;96774.38;;;14.18;100.00
52441;BME280;39611;46.062;8.950;2023-05-25T05:43:20;96776.16;;;14.23;100.00
52441;BME280;39611;46.062;8.950;2023-05-25T05:45:47;96770.28;;;14.26;100.00
52441;BME280;39611;46.062;8.950;2023-05-25T05:48:14;96779.63;;;14.23;100.00
52441;BME280;39611;46.062;8.950;2023-05-25T05:50:41;96787.09;;;14.21;100.00
52441;BME280;39611;46.062;8.950;2023-05-25T05:53:07;96780.97;;;14.20;100.00
52441;BME280;39611;46.062;8.950;2023-05-25T05:55:35;96785.53;;;14.20;100.00
52441;BME280;39611;46.062;8.950;2023-05-25T05:58:02;96787.91;;;14.22;100.00
52441;BME280;39611;46.062;8.950;2023-05-25T06:00:28;96783.56;;;14.26;100.00
52441;BME280;39611;46.062;8.950;2023-05-25T06:02:55;96788.22;;;14.34;100.00
52441;BME280;39611;46.062;8.950;2023-05-25T06:05:22;96788.88;;;14.45;100.00
52441;BME280;39611;46.062;8.950;2023-05-25T06:07:48;96788.00;;;14.49;100.00
52441;BME280;39611;46.062;8.950;2023-05-25T06:10:15;96769.88;;;14.51;100.00
52441;BME280;39611;46.062;8.950;2023-05-25T06:12:41;96778.66;;;14.52;100.00
52441;BME280;39611;46.062;8.950;2023-05-25T06:15:08;96797.59;;;14.69;100.00
52441;BME280;39611;46.062;8.950;2023-05-25T06:17:34;96786.00;;;14.93;100.00
52441;BME280;39611;46.062;8.950;2023-05-25T06:20:02;96795.34;;;15.23;100.00
52441;BME280;39611;46.062;8.950;2023-05-25T06:22:28;96789.38;;;14.98;100.00
52441;BME280;39611;46.062;8.950;2023-05-25T06:24:55;96813.59;;;14.83;100.00
52441;BME280;39611;46.062;8.950;2023-05-25T06:27:21;96814.78;;;14.77;100.00
52441;BME280;39611;46.062;8.950;2023-05-25T06:29:48;96827.84;;;14.73;100.00
52441;BME280;39611;46.062;8.950;2023-05-25T06:32:15;96829.81;;;14.68;100.00
52441;BME280;39611;46.062;8.950;2023-05-25T06:34:42;96839.88;;;14.71;100.00
52441;BME280;39611;46.062;8.950;2023-05-25T06:37:08;96842.97;;;14.78;100.00
52441;BME280;39611;46.062;8.950;2023-05-25T06:39:35;96844.84;;;14.77;100.00
52441;BME280;39611;46.062;8.950;2023-05-25T06:42:01;96848.16;;;14.69;100.00
52441;BME280;39611;46.062;8.950;2023-05-25T06:44:28;96843.72;;;14.64;100.00
52441;BME280;39611;46.062;8.950;2023-05-25T06:46:54;96853.50;;;14.69;100.00
52441;BME280;39611;46.062;8.950;2023-05-25T06:49:21;96868.53;;;14.79;100.00
52441;BME280;39611;46.062;8.950;2023-05-25T06:51:47;96857.88;;;14.79;100.00
52441;BME280;39611;46.062;8.950;2023-05-25T06:54:16;96849.66;;;14.75;100.00
52441;BME280;39611;46.062;8.950;2023-05-25T06:56:42;96834.31;;;14.86;100.00
52441;BME280;39611;46.062;8.950;2023-05-25T06:59:09;96830.59;;;14.87;100.00
52441;BME280;39611;46.062;8.950;2023-05-25T07:01:35;96847.72;;;14.81;100.00
52441;BME280;39611;46.062;8.950;2023-05-25T07:04:02;96865.38;;;14.77;100.00
52441;BME280;39611;46.062;8.950;2023-05-25T07:06:29;96879.66;;;14.81;100.00
52441;BME280;39611;46.062;8.950;2023-05-25T07:08:55;96885.16;;;14.90;100.00
52441;BME280;39611;46.062;8.950;2023-05-25T07:11:22;96893.84;;;14.95;100.00
52441;BME280;39611;46.062;8.950;2023-05-25T07:13:48;96895.13;;;14.98;100.00
52441;BME280;39611;46.062;8.950;2023-05-25T07:16:15;96897.69;;;14.89;100.00
52441;BME280;39611;46.062;8.950;2023-05-25T07:18:41;96898.53;;;14.84;100.00
52441;BME280;39611;46.062;8.950;2023-05-25T07:21:08;96903.47;;;14.91;100.00
52441;BME280;39611;46.062;8.950;2023-05-25T07:23:38;96918.69;;;14.91;100.00
52441;BME280;39611;46.062;8.950;2023-05-25T07:26:07;96925.28;;;14.93;100.00
52441;BME280;39611;46.062;8.950;2023-05-25T07:28:33;96920.41;;;15.00;100.00
52441;BME280;39611;46.062;8.950;2023-05-25T07:31:00;96916.56;;;15.06;100.00
52441;BME280;39611;46.062;8.950;2023-05-25T07:33:27;96925.34;;;15.07;100.00
52441;BME280;39611;46.062;8.950;2023-05-25T07:35:53;96922.31;;;15.14;100.00
52441;BME280;39611;46.062;8.950;2023-05-25T07:38:19;96914.16;;;15.24;100.00
52441;BME280;39611;46.062;8.950;2023-05-25T07:40:46;96914.75;;;15.21;100.00
52441;BME280;39611;46.062;8.950;2023-05-25T07:43:14;96902.31;;;15.30;100.00
52441;BME280;39611;46.062;8.950;2023-05-25T07:45:40;96906.50;;;15.36;100.00
52441;BME280;39611;46.062;8.950;2023-05-25T07:48:07;96916.69;;;15.48;100.00
52441;BME280;39611;46.062;8.950;2023-05-25T07:50:34;96911.84;;;15.50;100.00
52441;BME280;39611;46.062;8.950;2023-05-25T07:53:01;96923.72;;;15.58;100.00
52441;BME280;39611;46.062;8.950;2023-05-25T07:55:27;96929.06;;;15.58;100.00
52441;BME280;39611;46.062;8.950;2023-05-25T07:57:54;96935.97;;;15.59;100.00
52441;BME280;39611;46.062;8.950;2023-05-25T08:00:20;96930.34;;;15.60;100.00
52441;BME280;39611;46.062;8.950;2023-05-25T08:02:47;96921.47;;;15.65;100.00
52441;BME280;39611;46.062;8.950;2023-05-25T08:05:14;96914.03;;;15.48;100.00
52441;BME280;39611;46.062;8.950;2023-05-25T08:07:41;96920.72;;;15.45;100.00
52441;BME280;39611;46.062;8.950;2023-05-25T08:10:08;96925.09;;;15.41;100.00
52441;BME280;39611;46.062;8.950;2023-05-25T08:12:35;96923.53;;;15.54;100.00
52441;BME280;39611;46.062;8.950;2023-05-25T08:15:15;96928.50;;;15.75;100.00
52441;BME280;39611;46.062;8.950;2023-05-25T08:17:42;96930.91;;;15.90;100.00
52441;BME280;39611;46.062;8.950;2023-05-25T08:20:09;96921.13;;;15.85;100.00
52441;BME280;39611;46.062;8.950;2023-05-25T08:22:36;96933.28;;;15.91;100.00
52441;BME280;39611;46.062;8.950;2023-05-25T08:25:03;96938.19;;;15.84;100.00
52441;BME280;39611;46.062;8.950;2023-05-25T08:27:30;96935.03;;;15.82;100.00
52441;BME280;39611;46.062;8.950;2023-05-25T08:30:01;96944.72;;;15.92;100.00
52441;BME280;39611;46.062;8.950;2023-05-25T08:32:27;96933.38;;;15.86;100.00
52441;BME280;39611;46.062;8.950;2023-05-25T08:34:54;96937.81;;;15.91;100.00
52441;BME280;39611;46.062;8.950;2023-05-25T08:37:20;96938.91;;;16.04;100.00
52441;BME280;39611;46.062;8.950;2023-05-25T08:39:48;96944.75;;;16.20;100.00
52441;BME280;39611;46.062;8.950;2023-05-25T08:42:15;96942.16;;;16.28;100.00
52441;BME280;39611;46.062;8.950;2023-05-25T08:44:41;96947.78;;;16.41;100.00
52441;BME280;39611;46.062;8.950;2023-05-25T08:47:09;96940.88;;;16.26;100.00
52441;BME280;39611;46.062;8.950;2023-05-25T08:49:37;96948.50;;;16.32;100.00
52441;BME280;39611;46.062;8.950;2023-05-25T08:52:12;96947.50;;;16.28;100.00
52441;BME280;39611;46.062;8.950;2023-05-25T08:54:42;96943.34;;;16.36;100.00
52441;BME280;39611;46.062;8.950;2023-05-25T08:57:19;96925.22;;;16.47;100.00
52441;BME280;39611;46.062;8.950;2023-05-25T08:59:59;96948.44;;;16.60;100.00
52441;BME280;39611;46.062;8.950;2023-05-25T09:02:34;96937.97;;;16.64;100.00
52441;BME280;39611;46.062;8.950;2023-05-25T09:05:04;96939.16;;;16.71;100.00
52441;BME280;39611;46.062;8.950;2023-05-25T09:07:31;96951.19;;;16.83;100.00
52441;BME280;39611;46.062;8.950;2023-05-25T09:09:58;96947.81;;;16.91;100.00
52441;BME280;39611;46.062;8.950;2023-05-25T09:12:28;96935.66;;;16.85;100.00
52441;BME280;39611;46.062;8.950;2023-05-25T09:14:56;96930.63;;;16.83;100.00
52441;BME280;39611;46.062;8.950;2023-05-25T09:17:23;96948.19;;;16.98;100.00
52441;BME280;39611;46.062;8.950;2023-05-25T09:19:49;96937.44;;;17.12;100.00
52441;BME280;39611;46.062;8.950;2023-05-25T09:22:16;96949.66;;;17.27;100.00
52441;BME280;39611;46.062;8.950;2023-05-25T09:24:43;96941.09;;;17.38;100.00
52441;BME280;39611;46.062;8.950;2023-05-25T09:27:17;96950.69;;;17.39;100.00
52441;BME280;39611;46.062;8.950;2023-05-25T09:29:48;96952.59;;;17.39;100.00
52441;BME280;39611;46.062;8.950;2023-05-25T09:32:16;96948.19;;;17.43;100.00
52441;BME280;39611;46.062;8.950;2023-05-25T09:34:44;96946.63;;;17.42;100.00
52441;BME280;39611;46.062;8.950;2023-05-25T09:37:15;96954.50;;;17.47;100.00
52441;BME280;39611;46.062;8.950;2023-05-25T09:39:43;96952.94;;;17.46;100.00
52441;BME280;39611;46.062;8.950;2023-05-25T09:42:10;96942.47;;;17.58;100.00
52441;BME280;39611;46.062;8.950;2023-05-25T09:44:38;96937.44;;;17.57;100.00
52441;BME280;39611;46.062;8.950;2023-05-25T09:47:05;96939.13;;;17.53;100.00
52441;BME280;39611;46.062;8.950;2023-05-25T09:49:31;96947.63;;;17.55;100.00
52441;BME280;39611;46.062;8.950;2023-05-25T09:51:59;96945.44;;;17.79;100.00
52441;BME280;39611;46.062;8.950;2023-05-25T09:54:26;96954.13;;;17.85;100.00
52441;BME280;39611;46.062;8.950;2023-05-25T09:56:53;96938.59;;;17.96;100.00
52441;BME280;39611;46.062;8.950;2023-05-25T09:59:20;96942.19;;;17.91;100.00
52441;BME280;39611;46.062;8.950;2023-05-25T10:01:51;96944.25;;;18.03;100.00
52441;BME280;39611;46.062;8.950;2023-05-25T10:04:19;96945.47;;;17.88;100.00
52441;BME280;39611;46.062;8.950;2023-05-25T10:06:47;96952.63;;;18.01;100.00
52441;BME280;39611;46.062;8.950;2023-05-25T10:09:21;96947.78;;;18.21;100.00
52441;BME280;39611;46.062;8.950;2023-05-25T10:11:50;96950.03;;;18.27;100.00
52441;BME280;39611;46.062;8.950;2023-05-25T10:14:22;96953.34;;;18.33;100.00
52441;BME280;39611;46.062;8.950;2023-05-25T10:16:57;96970.06;;;18.39;100.00
52441;BME280;39611;46.062;8.950;2023-05-25T10:22:18;96962.81;;;18.39;100.00
52441;BME280;39611;46.062;8.950;2023-05-25T10:27:18;96957.16;;;18.49;100.00
52441;BME280;39611;46.062;8.950;2023-05-25T10:29:55;96954.13;;;18.33;100.00
52441;BME280;39611;46.062;8.950;2023-05-25T10:32:21;96954.41;;;18.23;100.00
52441;BME280;39611;46.062;8.950;2023-05-25T10:34:51;96955.69;;;18.26;100.00
52441;BME280;39611;46.062;8.950;2023-05-25T10:37:18;96959.63;;;18.28;100.00
52441;BME280;39611;46.062;8.950;2023-05-25T10:39:45;96959.50;;;18.33;100.00
52441;BME280;39611;46.062;8.950;2023-05-25T10:42:12;96953.50;;;18.37;100.00
52441;BME280;39611;46.062;8.950;2023-05-25T10:44:40;96954.31;;;18.37;100.00
52441;BME280;39611;46.062;8.950;2023-05-25T10:47:08;96946.44;;;18.32;100.00
52441;BME280;39611;46.062;8.950;2023-05-25T10:49:58;96942.50;;;18.47;100.00
52441;BME280;39611;46.062;8.950;2023-05-25T10:52:29;96940.66;;;18.56;100.00
52441;BME280;39611;46.062;8.950;2023-05-25T10:55:00;96930.88;;;18.69;100.00
52441;BME280;39611;46.062;8.950;2023-05-25T10:57:27;96931.25;;;18.76;100.00
52441;BME280;39611;46.062;8.950;2023-05-25T11:00:00;96928.72;;;18.80;100.00
52441;BME280;39611;46.062;8.950;2023-05-25T11:02:27;96932.19;;;18.80;100.00
52441;BME280;39611;46.062;8.950;2023-05-25T11:07:52;96922.91;;;18.86;100.00
52441;BME280;39611;46.062;8.950;2023-05-25T11:10:41;96905.22;;;18.85;100.00
52441;BME280;39611;46.062;8.950;2023-05-25T11:18:49;96906.66;;;18.91;100.00
52441;BME280;39611;46.062;8.950;2023-05-25T11:26:33;96902.88;;;18.92;100.00
52441;BME280;39611;46.062;8.950;2023-05-25T11:29:10;96896.72;;;18.92;100.00
52441;BME280;39611;46.062;8.950;2023-05-25T11:31:37;96896.25;;;18.90;100.00
52441;BME280;39611;46.062;8.950;2023-05-25T11:34:09;96898.91;;;18.98;100.00
52441;BME280;39611;46.062;8.950;2023-05-25T11:36:37;96889.75;;;19.08;100.00
52441;BME280;39611;46.062;8.950;2023-05-25T11:39:04;96898.41;;;19.14;100.00
52441;BME280;39611;46.062;8.950;2023-05-25T11:41:47;96891.16;;;19.14;100.00
52441;BME280;39611;46.062;8.950;2023-05-25T11:44:14;96904.13;;;19.12;100.00
52441;BME280;39611;46.062;8.950;2023-05-25T11:46:52;96902.53;;;19.20;100.00
52441;BME280;39611;46.062;8.950;2023-05-25T11:49:20;96899.34;;;19.27;100.00
52441;BME280;39611;46.062;8.950;2023-05-25T11:51:46;96894.47;;;19.29;100.00
52441;BME280;39611;46.062;8.950;2023-05-25T11:54:26;96883.53;;;19.42;100.00
52441;BME280;39611;46.062;8.950;2023-05-25T11:56:54;96886.84;;;19.39;100.00
52441;BME280;39611;46.062;8.950;2023-05-25T11:59:24;96890.81;;;19.33;100.00
52441;BME280;39611;46.062;8.950;2023-05-25T12:02:01;96887.34;;;19.41;100.00
52441;BME280;39611;46.062;8.950;2023-05-25T12:04:30;96878.94;;;19.52;100.00
52441;BME280;39611;46.062;8.950;2023-05-25T12:09:29;96883.22;;;19.44;100.00
52441;BME280;39611;46.062;8.950;2023-05-25T12:11:56;96886.03;;;19.48;100.00
52441;BME280;39611;46.062;8.950;2023-05-25T12:14:22;96882.72;;;19.51;100.00
52441;BME280;39611;46.062;8.950;2023-05-25T12:16:49;96884.63;;;19.50;100.00
52441;BME280;39611;46.062;8.950;2023-05-25T12:19:17;96880.38;;;19.49;100.00
52441;BME280;39611;46.062;8.950;2023-05-25T12:21:44;96877.19;;;19.56;100.00
52441;BME280;39611;46.062;8.950;2023-05-25T12:24:10;96880.97;;;19.55;100.00
52441;BME280;39611;46.062;8.950;2023-05-25T12:26:47;96880.16;;;19.63;100.00
52441;BME280;39611;46.062;8.950;2023-05-25T12:29:14;96873.06;;;19.58;100.00
52441;BME280;39611;46.062;8.950;2023-05-25T12:31:41;96874.97;;;19.58;100.00
52441;BME280;39611;46.062;8.950;2023-05-25T12:36:46;96866.78;;;19.54;100.00
52441;BME280;39611;46.062;8.950;2023-05-25T12:41:50;96859.16;;;19.65;100.00
52441;BME280;39611;46.062;8.950;2023-05-25T12:44:27;96865.94;;;19.71;100.00
52441;BME280;39611;46.062;8.950;2023-05-25T12:49:51;96863.72;;;19.82;100.00
52441;BME280;39611;46.062;8.950;2023-05-25T12:52:41;96856.69;;;19.90;100.00
52441;BME280;39611;46.062;8.950;2023-05-25T12:55:18;96864.16;;;19.84;100.00
52441;BME280;39611;46.062;8.950;2023-05-25T12:57:45;96853.28;;;19.80;100.00
52441;BME280;39611;46.062;8.950;2023-05-25T13:00:12;96855.31;;;19.83;100.00
52441;BME280;39611;46.062;8.950;2023-05-25T13:02:45;96849.63;;;19.85;100.00
52441;BME280;39611;46.062;8.950;2023-05-25T13:05:20;96851.50;;;19.93;100.00
52441;BME280;39611;46.062;8.950;2023-05-25T13:07:47;96860.50;;;19.89;100.00
52441;BME280;39611;46.062;8.950;2023-05-25T13:10:14;96857.50;;;19.90;100.00
52441;BME280;39611;46.062;8.950;2023-05-25T13:12:44;96851.31;;;19.90;100.00
52441;BME280;39611;46.062;8.950;2023-05-25T13:15:12;96849.78;;;19.89;100.00
52441;BME280;39611;46.062;8.950;2023-05-25T13:17:42;96848.34;;;19.91;100.00
52441;BME280;39611;46.062;8.950;2023-05-25T13:20:11;96844.53;;;19.92;100.00
52441;BME280;39611;46.062;8.950;2023-05-25T13:22:42;96844.50;;;20.01;100.00
52441;BME280;39611;46.062;8.950;2023-05-25T13:25:11;96834.22;;;20.03;100.00
52441;BME280;39611;46.062;8.950;2023-05-25T13:27:48;96834.66;;;20.05;100.00
52441;BME280;39611;46.062;8.950;2023-05-25T13:30:16;96840.13;;;20.17;100.00
52441;BME280;39611;46.062;8.950;2023-05-25T13:32:43;96841.06;;;20.21;100.00